sensor_id;sensor_type;location;lat;lon;timestamp;temperature;humidity
11656;DHT22;5884;43.618;1.438;2023-12-22T05:46:59;11.00;99.90
11656;DHT22;5884;43.618;1.438;2023-12-22T05:49:26;11.00;99.90
11656;DHT22;5884;43.618;1.438;2023-12-22T05:51:53;11.00;99.90
11656;DHT22;5884;43.618;1.438;2023-12-22T05:54:20;11.00;99.90
11656;DHT22;5884;43.618;1.438;2023-12-22T05:56:50;11.00;99.90
11656;DHT22;5884;43.618;1.438;2023-12-22T05:59:18;11.00;99.90
11656;DHT22;5884;43.618;1.438;2023-12-22T06:01:45;11.00;99.90
11656;DHT22;5884;43.618;1.438;2023-12-22T06:04:13;11.00;99.90
11656;DHT22;5884;43.618;1.438;2023-12-22T06:06:40;11.00;99.90
11656;DHT22;5884;43.618;1.438;2023-12-22T06:09:07;11.00;99.90
11656;DHT22;5884;43.618;1.438;2023-12-22T06:11:37;11.00;99.90
11656;DHT22;5884;43.618;1.438;2023-12-22T06:14:05;11.00;99.90
11656;DHT22;5884;43.618;1.438;2023-12-22T06:16:32;11.00;99.90
11656;DHT22;5884;43.618;1.438;2023-12-22T06:18:59;11.00;99.90
11656;DHT22;5884;43.618;1.438;2023-12-22T06:21:28;11.00;99.90
11656;DHT22;5884;43.618;1.438;2023-12-22T06:23:55;11.00;99.90
11656;DHT22;5884;43.618;1.438;2023-12-22T06:26:22;11.00;99.90
11656;DHT22;5884;43.618;1.438;2023-12-22T06:28:49;11.00;99.90
11656;DHT22;5884;43.618;1.438;2023-12-22T06:31:18;11.00;99.90
11656;DHT22;5884;43.618;1.438;2023-12-22T06:33:45;11.00;99.90
11656;DHT22;5884;43.618;1.438;2023-12-22T06:36:18;11.00;99.90
11656;DHT22;5884;43.618;1.438;2023-12-22T06:38:47;11.00;99.90
11656;DHT22;5884;43.618;1.438;2023-12-22T06:41:20;11.00;99.90
11656;DHT22;5884;43.618;1.438;2023-12-22T06:43:47;11.00;99.90
11656;DHT22;5884;43.618;1.438;2023-12-22T06:46:15;11.00;99.90
11656;DHT22;5884;43.618;1.438;2023-12-22T06:48:43;11.00;99.90
11656;DHT22;5884;43.618;1.438;2023-12-22T06:51:17;11.00;99.90
11656;DHT22;5884;43.618;1.438;2023-12-22T06:53:44;11.00;99.90
11656;DHT22;5884;43.618;1.438;2023-12-22T06:56:17;11.00;99.90
11656;DHT22;5884;43.618;1.438;2023-12-22T06:58:45;11.00;99.90
11656;DHT22;5884;43.618;1.438;2023-12-22T07:01:18;11.00;99.90
11656;DHT22;5884;43.618;1.438;2023-12-22T07:03:46;11.00;99.90
11656;DHT22;5884;43.618;1.438;2023-12-22T07:06:14;11.00;99.90
11656;DHT22;5884;43.618;1.438;2023-12-22T07:08:42;11.00;99.90
11656;DHT22;5884;43.618;1.438;2023-12-22T07:11:11;11.00;99.90
11656;DHT22;5884;43.618;1.438;2023-12-22T07:13:38;11.10;99.90
11656;DHT22;5884;43.618;1.438;2023-12-22T07:16:06;11.10;99.90
11656;DHT22;5884;43.618;1.438;2023-12-22T07:18:33;11.10;99.90
11656;DHT22;5884;43.618;1.438;2023-12-22T07:21:00;11.10;99.90
11656;DHT22;5884;43.618;1.438;2023-12-22T07:23:27;11.00;99.90
11656;DHT22;5884;43.618;1.438;2023-12-22T07:25:54;11.00;99.90
11656;DHT22;5884;43.618;1.438;2023-12-22T07:28:23;11.10;99.90
11656;DHT22;5884;43.618;1.438;2023-12-22T07:30:50;11.00;99.90
11656;DHT22;5884;43.618;1.438;2023-12-22T07:33:17;11.10;99.90
11656;DHT22;5884;43.618;1.438;2023-12-22T07:35:44;11.10;99.90
11656;DHT22;5884;43.618;1.438;2023-12-22T07:38:12;11.10;99.90
11656;DHT22;5884;43.618;1.438;2023-12-22T07:40:39;11.10;99.90
11656;DHT22;5884;43.618;1.438;2023-12-22T07:43:06;11.10;99.90
11656;DHT22;5884;43.618;1.438;2023-12-22T07:45:35;11.10;99.90
11656;DHT22;5884;43.618;1.438;2023-12-22T07:48:04;11.10;99.90
11656;DHT22;5884;43.618;1.438;2023-12-22T07:50:32;11.10;99.90
11656;DHT22;5884;43.618;1.438;2023-12-22T07:52:59;11.10;99.90
11656;DHT22;5884;43.618;1.438;2023-12-22T07:55:26;11.10;99.90
11656;DHT22;5884;43.618;1.438;2023-12-22T07:57:53;11.10;99.90
11656;DHT22;5884;43.618;1.438;2023-12-22T08:00:21;11.10;99.90
11656;DHT22;5884;43.618;1.438;2023-12-22T08:02:49;11.20;99.90
11656;DHT22;5884;43.618;1.438;2023-12-22T08:05:18;11.20;99.90
11656;DHT22;5884;43.618;1.438;2023-12-22T08:07:45;11.20;99.90
11656;DHT22;5884;43.618;1.438;2023-12-22T08:10:12;11.20;99.90
11656;DHT22;5884;43.618;1.438;2023-12-22T08:12:40;11.20;99.90
11656;DHT22;5884;43.618;1.438;2023-12-22T08:15:08;11.20;99.90
11656;DHT22;5884;43.618;1.438;2023-12-22T08:17:36;11.20;99.90
11656;DHT22;5884;43.618;1.438;2023-12-22T08:20:08;11.10;99.90
11656;DHT22;5884;43.618;1.438;2023-12-22T08:22:36;11.20;99.90
11656;DHT22;5884;43.618;1.438;2023-12-22T08:25:03;11.20;99.90
11656;DHT22;5884;43.618;1.438;2023-12-22T08:27:34;11.20;99.90
11656;DHT22;5884;43.618;1.438;2023-12-22T08:30:04;11.20;99.90
11656;DHT22;5884;43.618;1.438;2023-12-22T08:32:33;11.20;99.90
11656;DHT22;5884;43.618;1.438;2023-12-22T08:35:00;11.20;99.90
11656;DHT22;5884;43.618;1.438;2023-12-22T08:37:28;11.20;99.90
11656;DHT22;5884;43.618;1.438;2023-12-22T08:39:55;11.20;99.90
11656;DHT22;5884;43.618;1.438;2023-12-22T08:42:23;11.30;99.90
11656;DHT22;5884;43.618;1.438;2023-12-22T08:44:51;11.30;99.90
11656;DHT22;5884;43.618;1.438;2023-12-22T08:47:18;11.30;99.90
11656;DHT22;5884;43.618;1.438;2023-12-22T08:49:45;11.30;99.90
11656;DHT22;5884;43.618;1.438;2023-12-22T08:52:13;11.30;99.90
11656;DHT22;5884;43.618;1.438;2023-12-22T08:54:41;11.30;99.90
11656;DHT22;5884;43.618;1.438;2023-12-22T08:57:09;11.30;99.90
11656;DHT22;5884;43.618;1.438;2023-12-22T08:59:36;11.30;99.90
11656;DHT22;5884;43.618;1.438;2023-12-22T09:02:04;11.40;99.90
11656;DHT22;5884;43.618;1.438;2023-12-22T09:04:31;11.40;99.90
11656;DHT22;5884;43.618;1.438;2023-12-22T09:06:58;11.40;99.90
11656;DHT22;5884;43.618;1.438;2023-12-22T09:09:25;11.50;99.90
11656;DHT22;5884;43.618;1.438;2023-12-22T09:11:54;11.50;99.90
11656;DHT22;5884;43.618;1.438;2023-12-22T09:14:21;11.50;99.90
11656;DHT22;5884;43.618;1.438;2023-12-22T09:16:49;11.60;99.90
11656;DHT22;5884;43.618;1.438;2023-12-22T09:19:16;11.70;99.90
11656;DHT22;5884;43.618;1.438;2023-12-22T09:21:43;11.70;99.90
11656;DHT22;5884;43.618;1.438;2023-12-22T09:24:10;11.80;99.90
11656;DHT22;5884;43.618;1.438;2023-12-22T09:26:39;11.80;99.90
11656;DHT22;5884;43.618;1.438;2023-12-22T09:29:07;11.80;99.90
11656;DHT22;5884;43.618;1.438;2023-12-22T09:31:34;11.80;99.90
11656;DHT22;5884;43.618;1.438;2023-12-22T09:34:01;11.80;99.90
11656;DHT22;5884;43.618;1.438;2023-12-22T09:36:29;11.80;99.90
11656;DHT22;5884;43.618;1.438;2023-12-22T09:38:56;11.80;99.90
11656;DHT22;5884;43.618;1.438;2023-12-22T09:41:23;11.90;99.90
11656;DHT22;5884;43.618;1.438;2023-12-22T09:43:51;11.90;99.90
11656;DHT22;5884;43.618;1.438;2023-12-22T09:46:20;11.90;99.90
11656;DHT22;5884;43.618;1.438;2023-12-22T09:48:49;11.90;99.90
11656;DHT22;5884;43.618;1.438;2023-12-22T09:51:19;11.90;99.90
11656;DHT22;5884;43.618;1.438;2023-12-22T09:53:47;11.90;99.90
11656;DHT22;5884;43.618;1.438;2023-12-22T09:56:15;11.90;99.90
11656;DHT22;5884;43.618;1.438;2023-12-22T09:58:45;12.00;99.90
11656;DHT22;5884;43.618;1.438;2023-12-22T10:01:12;12.10;99.90
11656;DHT22;5884;43.618;1.438;2023-12-22T10:03:41;12.10;99.90
11656;DHT22;5884;43.618;1.438;2023-12-22T10:06:10;12.00;99.90
11656;DHT22;5884;43.618;1.438;2023-12-22T10:08:38;12.00;99.90
11656;DHT22;5884;43.618;1.438;2023-12-22T10:11:06;12.00;99.90
11656;DHT22;5884;43.618;1.438;2023-12-22T10:13:36;12.00;99.90
11656;DHT22;5884;43.618;1.438;2023-12-22T10:16:06;12.00;99.90
11656;DHT22;5884;43.618;1.438;2023-12-22T10:18:33;12.00;99.90
11656;DHT22;5884;43.618;1.438;2023-12-22T10:21:02;12.10;99.90
11656;DHT22;5884;43.618;1.438;2023-12-22T10:23:30;12.10;99.90
11656;DHT22;5884;43.618;1.438;2023-12-22T10:25:57;12.20;99.90
11656;DHT22;5884;43.618;1.438;2023-12-22T10:28:27;12.20;99.90
11656;DHT22;5884;43.618;1.438;2023-12-22T10:30:56;12.20;99.90
11656;DHT22;5884;43.618;1.438;2023-12-22T10:33:30;12.30;99.90
11656;DHT22;5884;43.618;1.438;2023-12-22T10:35:58;12.40;99.90
11656;DHT22;5884;43.618;1.438;2023-12-22T10:38:31;12.30;99.90
11656;DHT22;5884;43.618;1.438;2023-12-22T10:40:59;12.40;99.90
11656;DHT22;5884;43.618;1.438;2023-12-22T10:43:26;12.30;99.90
11656;DHT22;5884;43.618;1.438;2023-12-22T10:45:53;12.30;99.90
11656;DHT22;5884;43.618;1.438;2023-12-22T10:48:22;12.30;99.90
11656;DHT22;5884;43.618;1.438;2023-12-22T10:50:49;12.30;99.90
11656;DHT22;5884;43.618;1.438;2023-12-22T10:53:16;12.30;99.90
11656;DHT22;5884;43.618;1.438;2023-12-22T10:55:46;12.20;99.90
11656;DHT22;5884;43.618;1.438;2023-12-22T10:58:16;12.10;99.90
11656;DHT22;5884;43.618;1.438;2023-12-22T11:00:45;12.10;99.90
11656;DHT22;5884;43.618;1.438;2023-12-22T11:03:17;12.20;99.90
11656;DHT22;5884;43.618;1.438;2023-12-22T11:05:46;12.20;99.90
11656;DHT22;5884;43.618;1.438;2023-12-22T11:08:14;12.30;99.90
11656;DHT22;5884;43.618;1.438;2023-12-22T11:10:47;12.20;99.90
11656;DHT22;5884;43.618;1.438;2023-12-22T11:13:20;12.30;99.90
11656;DHT22;5884;43.618;1.438;2023-12-22T11:15:49;12.40;99.90
11656;DHT22;5884;43.618;1.438;2023-12-22T11:18:21;12.40;99.90
11656;DHT22;5884;43.618;1.438;2023-12-22T11:20:50;12.40;99.90
11656;DHT22;5884;43.618;1.438;2023-12-22T11:23:19;12.30;99.90
11656;DHT22;5884;43.618;1.438;2023-12-22T11:25:51;12.30;99.90
11656;DHT22;5884;43.618;1.438;2023-12-22T11:28:20;12.40;99.90
11656;DHT22;5884;43.618;1.438;2023-12-22T11:30:49;12.40;99.90
11656;DHT22;5884;43.618;1.438;2023-12-22T11:33:18;12.30;99.90
11656;DHT22;5884;43.618;1.438;2023-12-22T11:35:46;12.30;99.90
11656;DHT22;5884;43.618;1.438;2023-12-22T11:38:14;12.30;99.90
11656;DHT22;5884;43.618;1.438;2023-12-22T11:40:44;12.30;99.90
11656;DHT22;5884;43.618;1.438;2023-12-22T11:43:13;12.20;99.90
11656;DHT22;5884;43.618;1.438;2023-12-22T11:45:41;12.20;99.90
11656;DHT22;5884;43.618;1.438;2023-12-22T11:48:10;12.40;99.90
11656;DHT22;5884;43.618;1.438;2023-12-22T11:50:37;12.50;99.90
11656;DHT22;5884;43.618;1.438;2023-12-22T11:53:18;12.50;99.90
11656;DHT22;5884;43.618;1.438;2023-12-22T11:56:01;12.70;99.90
11656;DHT22;5884;43.618;1.438;2023-12-22T11:58:35;12.70;99.90
11656;DHT22;5884;43.618;1.438;2023-12-22T12:01:05;12.90;99.90
11656;DHT22;5884;43.618;1.438;2023-12-22T12:03:36;12.80;99.90
11656;DHT22;5884;43.618;1.438;2023-12-22T12:06:14;12.80;99.90
11656;DHT22;5884;43.618;1.438;2023-12-22T12:08:43;12.80;99.90
11656;DHT22;5884;43.618;1.438;2023-12-22T12:11:10;12.80;99.90
11656;DHT22;5884;43.618;1.438;2023-12-22T12:13:42;12.70;99.90
11656;DHT22;5884;43.618;1.438;2023-12-22T12:16:11;12.60;99.90
11656;DHT22;5884;43.618;1.438;2023-12-22T12:18:39;12.50;99.90
11656;DHT22;5884;43.618;1.438;2023-12-22T12:21:08;12.40;99.90
11656;DHT22;5884;43.618;1.438;2023-12-22T12:23:36;12.40;99.90
11656;DHT22;5884;43.618;1.438;2023-12-22T12:26:06;12.50;99.90
11656;DHT22;5884;43.618;1.438;2023-12-22T12:28:34;12.60;99.90
11656;DHT22;5884;43.618;1.438;2023-12-22T12:31:05;12.60;99.90
11656;DHT22;5884;43.618;1.438;2023-12-22T12:33:33;12.70;99.90
11656;DHT22;5884;43.618;1.438;2023-12-22T12:36:02;12.90;99.90
11656;DHT22;5884;43.618;1.438;2023-12-22T12:38:39;12.90;99.90
11656;DHT22;5884;43.618;1.438;2023-12-22T12:41:13;12.90;99.90
11656;DHT22;5884;43.618;1.438;2023-12-22T12:43:42;12.90;99.90
11656;DHT22;5884;43.618;1.438;2023-12-22T12:46:11;12.90;99.90
11656;DHT22;5884;43.618;1.438;2023-12-22T12:48:38;12.90;99.90
11656;DHT22;5884;43.618;1.438;2023-12-22T12:51:06;12.90;99.90
11656;DHT22;5884;43.618;1.438;2023-12-22T12:53:34;12.80;99.90
11656;DHT22;5884;43.618;1.438;2023-12-22T12:56:03;13.00;99.90
11656;DHT22;5884;43.618;1.438;2023-12-22T12:58:32;13.00;99.90
11656;DHT22;5884;43.618;1.438;2023-12-22T13:01:07;13.10;99.90
11656;DHT22;5884;43.618;1.438;2023-12-22T13:03:52;13.10;99.90
11656;DHT22;5884;43.618;1.438;2023-12-22T13:06:20;13.00;99.90
11656;DHT22;5884;43.618;1.438;2023-12-22T13:08:48;13.00;99.90
11656;DHT22;5884;43.618;1.438;2023-12-22T13:11:19;13.00;99.90
11656;DHT22;5884;43.618;1.438;2023-12-22T13:13:47;13.00;99.90
11656;DHT22;5884;43.618;1.438;2023-12-22T13:16:18;13.10;99.90
11656;DHT22;5884;43.618;1.438;2023-12-22T13:18:45;13.10;99.90
11656;DHT22;5884;43.618;1.438;2023-12-22T13:21:14;13.10;99.90
11656;DHT22;5884;43.618;1.438;2023-12-22T13:23:41;13.10;99.90
11656;DHT22;5884;43.618;1.438;2023-12-22T13:26:17;13.20;99.90
11656;DHT22;5884;43.618;1.438;2023-12-22T13:28:45;13.20;99.90
11656;DHT22;5884;43.618;1.438;2023-12-22T13:31:13;13.20;99.90
11656;DHT22;5884;43.618;1.438;2023-12-22T13:33:40;13.20;99.90
11656;DHT22;5884;43.618;1.438;2023-12-22T13:36:08;13.30;99.90
11656;DHT22;5884;43.618;1.438;2023-12-22T13:38:37;13.20;99.90
11656;DHT22;5884;43.618;1.438;2023-12-22T13:41:06;13.20;99.90
11656;DHT22;5884;43.618;1.438;2023-12-22T13:43:34;13.10;99.90
11656;DHT22;5884;43.618;1.438;2023-12-22T13:46:01;13.10;99.90
11656;DHT22;5884;43.618;1.438;2023-12-22T13:48:29;13.10;99.90
11656;DHT22;5884;43.618;1.438;2023-12-22T13:50:57;13.00;99.90
11656;DHT22;5884;43.618;1.438;2023-12-22T13:53:25;13.10;99.90
11656;DHT22;5884;43.618;1.438;2023-12-22T13:55:56;13.00;99.90
11656;DHT22;5884;43.618;1.438;2023-12-22T13:58:24;12.90;99.90
11656;DHT22;5884;43.618;1.438;2023-12-22T14:00:53;12.90;99.90
11656;DHT22;5884;43.618;1.438;2023-12-22T14:03:20;12.90;99.90
11656;DHT22;5884;43.618;1.438;2023-12-22T14:05:48;12.80;99.90
11656;DHT22;5884;43.618;1.438;2023-12-22T14:08:15;12.80;99.90
11656;DHT22;5884;43.618;1.438;2023-12-22T14:10:45;12.80;99.90
11656;DHT22;5884;43.618;1.438;2023-12-22T14:13:15;12.80;99.90
11656;DHT22;5884;43.618;1.438;2023-12-22T14:15:42;12.80;99.90
11656;DHT22;5884;43.618;1.438;2023-12-22T14:18:08;12.70;99.90
11656;DHT22;5884;43.618;1.438;2023-12-22T14:20:36;12.60;99.90
11656;DHT22;5884;43.618;1.438;2023-12-22T14:23:03;12.70;99.90
11656;DHT22;5884;43.618;1.438;2023-12-22T14:25:30;12.60;99.90
11656;DHT22;5884;43.618;1.438;2023-12-22T14:27:58;12.60;99.90
11656;DHT22;5884;43.618;1.438;2023-12-22T14:30:27;12.60;99.90
11656;DHT22;5884;43.618;1.438;2023-12-22T14:32:54;12.60;99.90
11656;DHT22;5884;43.618;1.438;2023-12-22T14:35:21;12.60;99.90
11656;DHT22;5884;43.618;1.438;2023-12-22T14:37:48;12.50;99.90
11656;DHT22;5884;43.618;1.438;2023-12-22T14:40:16;12.50;99.90
11656;DHT22;5884;43.618;1.438;2023-12-22T14:42:43;12.40;99.90
11656;DHT22;5884;43.618;1.438;2023-12-22T14:45:10;12.40;99.90
11656;DHT22;5884;43.618;1.438;2023-12-22T14:47:39;12.40;99.90
11656;DHT22;5884;43.618;1.438;2023-12-22T14:50:07;12.50;99.90
11656;DHT22;5884;43.618;1.438;2023-12-22T14:52:34;12.50;99.90
11656;DHT22;5884;43.618;1.438;2023-12-22T14:55:01;12.50;99.90
11656;DHT22;5884;43.618;1.438;2023-12-22T14:57:29;12.50;99.90
11656;DHT22;5884;43.618;1.438;2023-12-22T14:59:58;12.60;99.90
11656;DHT22;5884;43.618;1.438;2023-12-22T15:02:26;12.60;99.90
11656;DHT22;5884;43.618;1.438;2023-12-22T15:04:55;12.50;99.90
11656;DHT22;5884;43.618;1.438;2023-12-22T15:07:22;12.50;99.90
11656;DHT22;5884;43.618;1.438;2023-12-22T15:09:49;12.50;99.90
11656;DHT22;5884;43.618;1.438;2023-12-22T15:12:16;12.50;99.90
11656;DHT22;5884;43.618;1.438;2023-12-22T15:14:44;12.60;99.90
11656;DHT22;5884;43.618;1.438;2023-12-22T15:17:11;12.60;99.90
11656;DHT22;5884;43.618;1.438;2023-12-22T15:19:40;12.70;99.90
11656;DHT22;5884;43.618;1.438;2023-12-22T15:22:10;12.60;99.90
11656;DHT22;5884;43.618;1.438;2023-12-22T15:24:37;12.60;99.90
11656;DHT22;5884;43.618;1.438;2023-12-22T15:27:06;12.50;99.90
11656;DHT22;5884;43.618;1.438;2023-12-22T15:29:33;12.40;99.90
11656;DHT22;5884;43.618;1.438;2023-12-22T15:32:00;12.30;99.90
11656;DHT22;5884;43.618;1.438;2023-12-22T15:34:28;12.30;99.90
11656;DHT22;5884;43.618;1.438;2023-12-22T15:36:55;12.20;99.90
11656;DHT22;5884;43.618;1.438;2023-12-22T15:39:24;12.20;99.90
11656;DHT22;5884;43.618;1.438;2023-12-22T15:41:51;12.20;99.90
11656;DHT22;5884;43.618;1.438;2023-12-22T15:44:18;12.20;99.90
11656;DHT22;5884;43.618;1.438;2023-12-22T15:46:45;12.10;99.90
11656;DHT22;5884;43.618;1.438;2023-12-22T15:49:12;12.10;99.90
11656;DHT22;5884;43.618;1.438;2023-12-22T15:51:39;12.10;99.90
11656;DHT22;5884;43.618;1.438;2023-12-22T15:54:07;12.00;99.90
11656;DHT22;5884;43.618;1.438;2023-12-22T15:56:35;12.00;99.90
11656;DHT22;5884;43.618;1.438;2023-12-22T15:59:03;12.00;99.90
11656;DHT22;5884;43.618;1.438;2023-12-22T16:01:30;12.00;99.90
11656;DHT22;5884;43.618;1.438;2023-12-22T16:03:57;12.00;99.90
11656;DHT22;5884;43.618;1.438;2023-12-22T16:06:24;12.00;99.90
11656;DHT22;5884;43.618;1.438;2023-12-22T16:08:51;12.00;99.90
11656;DHT22;5884;43.618;1.438;2023-12-22T16:11:19;12.00;99.90
11656;DHT22;5884;43.618;1.438;2023-12-22T16:13:48;12.00;99.90
11656;DHT22;5884;43.618;1.438;2023-12-22T16:16:17;12.00;99.90
11656;DHT22;5884;43.618;1.438;2023-12-22T16:18:45;12.00;99.90
11656;DHT22;5884;43.618;1.438;2023-12-22T16:21:12;12.00;99.90
11656;DHT22;5884;43.618;1.438;2023-12-22T16:23:39;12.00;99.90
11656;DHT22;5884;43.618;1.438;2023-12-22T16:26:06;12.00;99.90
11656;DHT22;5884;43.618;1.438;2023-12-22T16:28:33;12.00;99.90
11656;DHT22;5884;43.618;1.438;2023-12-22T16:31:03;12.00;99.90
11656;DHT22;5884;43.618;1.438;2023-12-22T16:33:30;11.90;99.90
11656;DHT22;5884;43.618;1.438;2023-12-22T16:35:57;12.00;99.90
11656;DHT22;5884;43.618;1.438;2023-12-22T16:38:25;11.90;99.90
11656;DHT22;5884;43.618;1.438;2023-12-22T16:40:52;11.90;99.90
11656;DHT22;5884;43.618;1.438;2023-12-22T16:43:19;11.90;99.90
11656;DHT22;5884;43.618;1.438;2023-12-22T16:45:46;11.90;99.90
11656;DHT22;5884;43.618;1.438;2023-12-22T16:48:15;11.90;99.90
11656;DHT22;5884;43.618;1.438;2023-12-22T16:50:43;11.90;99.90
11656;DHT22;5884;43.618;1.438;2023-12-22T16:53:10;11.80;99.90
11656;DHT22;5884;43.618;1.438;2023-12-22T16:55:37;11.90;99.90
11656;DHT22;5884;43.618;1.438;2023-12-22T16:58:04;11.80;99.90
11656;DHT22;5884;43.618;1.438;2023-12-22T17:00:31;11.80;99.90
11656;DHT22;5884;43.618;1.438;2023-12-22T17:02:58;11.70;99.90
11656;DHT22;5884;43.618;1.438;2023-12-22T17:05:27;11.70;99.90
11656;DHT22;5884;43.618;1.438;2023-12-22T17:07:54;11.80;99.90
11656;DHT22;5884;43.618;1.438;2023-12-22T17:10:21;11.80;99.90
11656;DHT22;5884;43.618;1.438;2023-12-22T17:12:48;11.70;99.90
11656;DHT22;5884;43.618;1.438;2023-12-22T17:15:15;11.70;99.90
11656;DHT22;5884;43.618;1.438;2023-12-22T17:17:43;11.70;99.90
11656;DHT22;5884;43.618;1.438;2023-12-22T17:20:10;11.70;99.90
11656;DHT22;5884;43.618;1.438;2023-12-22T17:22:40;11.70;99.90
11656;DHT22;5884;43.618;1.438;2023-12-22T17:25:08;11.60;99.90
11656;DHT22;5884;43.618;1.438;2023-12-22T17:27:36;11.60;99.90
11656;DHT22;5884;43.618;1.438;2023-12-22T17:30:05;11.60;99.90
11656;DHT22;5884;43.618;1.438;2023-12-22T17:32:34;11.60;99.90
11656;DHT22;5884;43.618;1.438;2023-12-22T17:35:02;11.60;99.90
11656;DHT22;5884;43.618;1.438;2023-12-22T17:37:34;11.60;99.90
11656;DHT22;5884;43.618;1.438;2023-12-22T17:40:02;11.50;99.90
11656;DHT22;5884;43.618;1.438;2023-12-22T17:42:34;11.50;99.90
11656;DHT22;5884;43.618;1.438;2023-12-22T17:45:10;11.50;99.90
11656;DHT22;5884;43.618;1.438;2023-12-22T17:47:40;11.40;99.90
11656;DHT22;5884;43.618;1.438;2023-12-22T17:50:08;11.40;99.90
11656;DHT22;5884;43.618;1.438;2023-12-22T17:52:36;11.40;99.90
11656;DHT22;5884;43.618;1.438;2023-12-22T17:55:12;11.30;99.90
11656;DHT22;5884;43.618;1.438;2023-12-22T17:57:40;11.30;99.90
11656;DHT22;5884;43.618;1.438;2023-12-22T18:00:11;11.30;99.90
11656;DHT22;5884;43.618;1.438;2023-12-22T18:02:40;11.20;99.90
11656;DHT22;5884;43.618;1.438;2023-12-22T18:05:08;11.20;99.90
11656;DHT22;5884;43.618;1.438;2023-12-22T18:07:36;11.20;99.90
11656;DHT22;5884;43.618;1.438;2023-12-22T18:10:04;11.10;99.90
11656;DHT22;5884;43.618;1.438;2023-12-22T18:12:37;11.20;99.90
11656;DHT22;5884;43.618;1.438;2023-12-22T18:15:09;11.10;99.90
11656;DHT22;5884;43.618;1.438;2023-12-22T18:17:36;11.10;99.90
11656;DHT22;5884;43.618;1.438;2023-12-22T18:20:04;11.10;99.90
11656;DHT22;5884;43.618;1.438;2023-12-22T18:22:32;11.10;99.90
11656;DHT22;5884;43.618;1.438;2023-12-22T18:24:59;11.00;99.90
11656;DHT22;5884;43.618;1.438;2023-12-22T18:27:28;11.10;99.90
11656;DHT22;5884;43.618;1.438;2023-12-22T18:29:56;11.10;99.90
11656;DHT22;5884;43.618;1.438;2023-12-22T18:32:29;10.80;99.90
11656;DHT22;5884;43.618;1.438;2023-12-22T18:34:58;10.60;99.90
11656;DHT22;5884;43.618;1.438;2023-12-22T18:37:26;10.50;99.90
11656;DHT22;5884;43.618;1.438;2023-12-22T18:39:54;10.50;99.90
11656;DHT22;5884;43.618;1.438;2023-12-22T18:42:22;10.30;99.90
11656;DHT22;5884;43.618;1.438;2023-12-22T18:44:51;10.30;99.90
11656;DHT22;5884;43.618;1.438;2023-12-22T18:47:21;10.30;99.90
11656;DHT22;5884;43.618;1.438;2023-12-22T18:49:49;10.30;99.90
11656;DHT22;5884;43.618;1.438;2023-12-22T18:52:16;10.40;99.90
11656;DHT22;5884;43.618;1.438;2023-12-22T18:54:43;10.40;99.90
11656;DHT22;5884;43.618;1.438;2023-12-22T18:57:10;10.20;99.90
11656;DHT22;5884;43.618;1.438;2023-12-22T18:59:38;10.30;99.90
11656;DHT22;5884;43.618;1.438;2023-12-22T19:02:08;10.30;99.90
11656;DHT22;5884;43.618;1.438;2023-12-22T19:04:35;10.30;99.90
11656;DHT22;5884;43.618;1.438;2023-12-22T19:07:06;10.30;99.90
11656;DHT22;5884;43.618;1.438;2023-12-22T19:09:33;10.20;99.90
11656;DHT22;5884;43.618;1.438;2023-12-22T19:12:00;10.20;99.90
11656;DHT22;5884;43.618;1.438;2023-12-22T19:14:28;10.20;99.90
11656;DHT22;5884;43.618;1.438;2023-12-22T19:16:55;10.30;99.90
11656;DHT22;5884;43.618;1.438;2023-12-22T19:19:24;10.20;99.90
11656;DHT22;5884;43.618;1.438;2023-12-22T19:21:52;10.30;99.90
11656;DHT22;5884;43.618;1.438;2023-12-22T19:24:19;10.30;99.90
11656;DHT22;5884;43.618;1.438;2023-12-22T19:26:47;10.30;99.90
11656;DHT22;5884;43.618;1.438;2023-12-22T19:29:18;10.30;99.90
11656;DHT22;5884;43.618;1.438;2023-12-22T19:31:45;10.30;99.90
11656;DHT22;5884;43.618;1.438;2023-12-22T19:34:12;10.30;99.90
11656;DHT22;5884;43.618;1.438;2023-12-22T19:36:41;10.30;99.90
11656;DHT22;5884;43.618;1.438;2023-12-22T19:39:08;10.30;99.90
11656;DHT22;5884;43.618;1.438;2023-12-22T19:41:35;10.30;99.90
11656;DHT22;5884;43.618;1.438;2023-12-22T19:44:02;10.30;99.90
11656;DHT22;5884;43.618;1.438;2023-12-22T19:46:30;10.30;99.90
11656;DHT22;5884;43.618;1.438;2023-12-22T19:48:58;10.20;99.90
11656;DHT22;5884;43.618;1.438;2023-12-22T19:51:25;10.30;99.90
11656;DHT22;5884;43.618;1.438;2023-12-22T19:54:02;10.30;99.90
11656;DHT22;5884;43.618;1.438;2023-12-22T19:56:30;10.30;99.90
11656;DHT22;5884;43.618;1.438;2023-12-22T19:58:59;10.30;99.90
11656;DHT22;5884;43.618;1.438;2023-12-22T20:01:36;10.30;99.90
11656;DHT22;5884;43.618;1.438;2023-12-22T20:04:14;10.30;99.90
11656;DHT22;5884;43.618;1.438;2023-12-22T20:06:44;10.30;99.90
11656;DHT22;5884;43.618;1.438;2023-12-22T20:09:13;10.30;99.90
11656;DHT22;5884;43.618;1.438;2023-12-22T20:11:41;10.20;99.90
11656;DHT22;5884;43.618;1.438;2023-12-22T20:14:09;10.30;99.90
11656;DHT22;5884;43.618;1.438;2023-12-22T20:16:36;10.30;99.90
11656;DHT22;5884;43.618;1.438;2023-12-22T20:19:04;10.30;99.90
11656;DHT22;5884;43.618;1.438;2023-12-22T20:21:31;10.30;99.90
11656;DHT22;5884;43.618;1.438;2023-12-22T20:23:58;10.30;99.90
11656;DHT22;5884;43.618;1.438;2023-12-22T20:26:27;10.30;99.90
11656;DHT22;5884;43.618;1.438;2023-12-22T20:28:57;10.30;99.90
11656;DHT22;5884;43.618;1.438;2023-12-22T20:31:33;10.30;99.90
11656;DHT22;5884;43.618;1.438;2023-12-22T20:34:02;10.30;99.90
11656;DHT22;5884;43.618;1.438;2023-12-22T20:36:30;10.30;99.90
11656;DHT22;5884;43.618;1.438;2023-12-22T20:38:57;10.30;99.90
11656;DHT22;5884;43.618;1.438;2023-12-22T20:41:29;10.20;99.90
11656;DHT22;5884;43.618;1.438;2023-12-22T20:44:04;10.20;99.90
11656;DHT22;5884;43.618;1.438;2023-12-22T20:46:32;10.20;99.90
11656;DHT22;5884;43.618;1.438;2023-12-22T20:49:00;10.20;99.90
11656;DHT22;5884;43.618;1.438;2023-12-22T20:51:28;10.20;99.90
11656;DHT22;5884;43.618;1.438;2023-12-22T20:53:57;10.20;99.90
11656;DHT22;5884;43.618;1.438;2023-12-22T20:56:24;10.20;99.90
11656;DHT22;5884;43.618;1.438;2023-12-22T20:58:54;10.20;99.90
11656;DHT22;5884;43.618;1.438;2023-12-22T21:01:24;10.20;99.90
11656;DHT22;5884;43.618;1.438;2023-12-22T21:03:52;10.20;99.90
11656;DHT22;5884;43.618;1.438;2023-12-22T21:06:22;10.20;99.90
11656;DHT22;5884;43.618;1.438;2023-12-22T21:08:49;10.20;99.90
11656;DHT22;5884;43.618;1.438;2023-12-22T21:11:20;10.20;99.90
11656;DHT22;5884;43.618;1.438;2023-12-22T21:13:48;10.20;99.90
11656;DHT22;5884;43.618;1.438;2023-12-22T21:16:16;10.20;99.90
11656;DHT22;5884;43.618;1.438;2023-12-22T21:18:43;10.20;99.90
11656;DHT22;5884;43.618;1.438;2023-12-22T21:21:11;10.20;99.90
11656;DHT22;5884;43.618;1.438;2023-12-22T21:23:38;10.20;99.90
11656;DHT22;5884;43.618;1.438;2023-12-22T21:26:06;10.20;99.90
11656;DHT22;5884;43.618;1.438;2023-12-22T21:28:49;10.20;99.90
11656;DHT22;5884;43.618;1.438;2023-12-22T21:31:20;10.20;99.90
11656;DHT22;5884;43.618;1.438;2023-12-22T21:33:50;10.20;99.90
11656;DHT22;5884;43.618;1.438;2023-12-22T21:36:21;10.20;99.90
11656;DHT22;5884;43.618;1.438;2023-12-22T21:38:52;10.20;99.90